Time;durP1;ratioP1;P1;durP2;ratioP2;P2;SDS_P1;SDS_P2;PMS_P1;PMS_P2;Temp;Humidity;BMP_temperature;BMP_pressure;BME280_temperature;BME280_humidity;BME280_pressure;Samples;Min_cycle;Max_cycle;Signal;HPM_P1;HPM_P2
2022/04/30 00:02:47;;;;;;;6.55;3.72;;;;;;;7.75;100.00;100786.05;1649794;85;21206;-79
2022/04/30 00:05:54;;;;;;;10.28;4.42;;;;;;;7.75;100.00;100785.54;1650958;87;21150;-79
2022/04/30 00:09:00;;;;;;;6.50;4.17;;;;;;;7.77;100.00;100794.44;1642956;87;21727;-79
2022/04/30 00:12:06;;;;;;;6.42;4.50;;;;;;;7.78;100.00;100796.66;1637701;86;21175;-79
2022/04/30 00:15:13;;;;;;;7.60;3.83;;;;;;;7.78;100.00;100793.43;1636990;87;21803;-79
2022/04/30 00:18:18;;;;;;;5.87;3.85;;;;;;;7.79;100.00;100792.42;1636947;86;21174;-79
2022/04/30 00:21:24;;;;;;;6.03;3.52;;;;;;;7.80;100.00;100792.77;1637870;87;21731;-79
2022/04/30 00:24:29;;;;;;;8.93;4.30;;;;;;;7.80;100.00;100781.88;1637543;87;21218;-79
2022/04/30 00:27:34;;;;;;;6.08;4.50;;;;;;;7.80;100.00;100781.88;1637552;86;21194;-79
2022/04/30 00:30:43;;;;;;;6.92;3.83;;;;;;;7.79;100.00;100784.25;1637989;87;21155;-79
2022/04/30 00:33:48;;;;;;;7.25;4.20;;;;;;;7.79;100.00;100789.69;1637838;86;21179;-79
2022/04/30 00:36:48;;;;;;;8.55;4.83;;;;;;;7.79;100.00;100781.52;1638048;86;21166;-79
2022/04/30 00:39:53;;;;;;;9.38;4.45;;;;;;;7.79;100.00;100783.39;1637839;87;21219;-79
2022/04/30 00:42:59;;;;;;;6.33;4.50;;;;;;;7.79;100.00;100779.31;1636657;86;21182;-79
2022/04/30 00:46:05;;;;;;;9.93;4.70;;;;;;;7.79;100.00;100781.52;1636775;87;21222;-79
2022/04/30 00:49:12;;;;;;;7.25;4.37;;;;;;;7.80;100.00;100781.02;1637797;87;21166;-79
2022/04/30 00:52:19;;;;;;;7.40;4.90;;;;;;;7.78;100.00;100777.09;1637629;86;21728;-79
2022/04/30 00:55:27;;;;;;;5.87;3.80;;;;;;;7.78;100.00;100777.09;1637385;87;21175;-79
2022/04/30 00:58:32;;;;;;;6.08;4.80;;;;;;;7.79;100.00;100780.16;1622872;87;21198;-79
2022/04/30 01:01:40;;;;;;;6.30;4.05;;;;;;;7.79;100.00;100775.22;1637848;86;21715;-79
2022/04/30 01:05:07;;;;;;;8.48;4.47;;;;;;;7.79;100.00;100773.35;1637457;87;21166;-79
2022/04/30 01:08:13;;;;;;;7.67;4.42;;;;;;;7.79;100.00;100772.50;1636676;86;21234;-79
2022/04/30 01:11:19;;;;;;;6.45;4.53;;;;;;;7.77;100.00;100774.02;1647551;87;21237;-79
2022/04/30 01:14:25;;;;;;;9.80;5.25;;;;;;;7.77;100.00;100770.44;1647584;87;21786;-80
2022/04/30 01:17:30;;;;;;;6.10;4.08;;;;;;;7.76;100.00;100765.47;1648412;87;21189;-80
2022/04/30 01:20:36;;;;;;;6.22;3.95;;;;;;;7.76;100.00;100768.19;1648725;87;21186;-79
2022/04/30 01:23:40;;;;;;;5.78;4.15;;;;;;;7.76;100.00;100770.91;1647679;87;21232;-80
2022/04/30 01:26:46;;;;;;;6.78;4.33;;;;;;;7.77;100.00;100771.30;1647795;87;21197;-80
2022/04/30 01:29:52;;;;;;;8.80;4.47;;;;;;;7.76;100.00;100775.50;1648806;87;21197;-79
2022/04/30 01:39:40;;;;;;;8.58;4.50;;;;;;;7.77;100.00;100764.48;1649029;87;21802;-80
2022/04/30 01:42:55;;;;;;;9.50;4.08;;;;;;;7.78;100.00;100758.03;1648263;87;21642;-79
2022/04/30 01:45:59;;;;;;;7.33;4.08;;;;;;;7.77;100.00;100760.91;1647581;87;21256;-80
2022/04/30 01:49:05;;;;;;;5.22;4.12;;;;;;;7.76;100.00;100767.34;1648117;87;21233;-79
2022/04/30 01:52:15;;;;;;;7.37;4.22;;;;;;;7.77;100.00;100767.21;1649047;87;21232;-79
2022/04/30 01:55:13;;;;;;;6.12;3.90;;;;;;;7.77;100.00;100761.77;1649061;87;21260;-79
2022/04/30 01:58:07;;;;;;;7.25;4.15;;;;;;;7.78;100.00;100758.03;1648724;87;21778;-80
2022/04/30 02:01:14;;;;;;;7.47;4.22;;;;;;;7.77;100.00;100759.05;1648931;87;21193;-79
2022/04/30 02:04:14;;;;;;;6.55;3.77;;;;;;;7.75;100.00;100758.31;1648171;87;21220;-80
2022/04/30 02:07:20;;;;;;;5.75;3.42;;;;;;;7.73;100.00;100756.25;1647245;87;21269;-79
2022/04/30 02:10:27;;;;;;;6.47;4.17;;;;;;;7.75;100.00;100754.23;1647329;87;21316;-79
2022/04/30 02:13:34;;;;;;;4.97;3.62;;;;;;;7.75;100.00;100754.23;1649801;85;21185;-79
2022/04/30 02:16:39;;;;;;;4.70;3.92;;;;;;;7.74;100.00;100751.16;1650835;85;21170;-79
2022/04/30 02:23:09;;;;;;;4.80;3.60;;;;;;;7.73;100.00;100759.48;1650803;85;21203;-79
2022/04/30 02:26:16;;;;;;;6.30;3.87;;;;;;;7.71;100.00;100762.33;1650614;87;21170;-79
2022/04/30 02:29:24;;;;;;;8.15;4.12;;;;;;;7.70;100.00;100760.62;1650589;87;21210;-79
2022/04/30 02:32:28;;;;;;;6.03;4.12;;;;;;;7.68;100.00;100763.50;1649548;85;21707;-79
2022/04/30 02:35:36;;;;;;;8.15;4.67;;;;;;;7.66;100.00;100762.77;1650851;87;21190;-80
2022/04/30 02:38:44;;;;;;;7.58;4.70;;;;;;;7.65;100.00;100761.56;1651025;85;21202;-79
2022/04/30 02:41:51;;;;;;;7.20;4.33;;;;;;;7.64;100.00;100755.77;1650865;85;21276;-79
2022/04/30 02:44:58;;;;;;;7.12;4.33;;;;;;;7.63;100.00;100760.36;1650851;87;21708;-80
2022/04/30 02:48:03;;;;;;;7.72;4.20;;;;;;;7.62;100.00;100752.31;1649610;85;21846;-79
2022/04/30 02:51:04;;;;;;;5.37;4.12;;;;;;;7.60;100.00;100746.17;1650806;87;21758;-79
2022/04/30 02:53:55;;;;;;;10.63;4.08;;;;;;;7.57;100.00;100750.54;1650862;87;21154;-79
2022/04/30 02:57:01;;;;;;;6.12;3.80;;;;;;;7.57;100.00;100762.78;1650263;85;21218;-79
2022/04/30 03:00:12;;;;;;;6.33;4.22;;;;;;;7.55;100.00;100760.73;1649501;87;21994;-79
2022/04/30 03:03:32;;;;;;;7.75;4.12;;;;;;;7.54;100.00;100761.73;1650612;85;21193;-79
2022/04/30 03:06:41;;;;;;;5.42;3.75;;;;;;;7.53;100.00;100770.41;1651034;85;21162;-79
2022/04/30 03:09:47;;;;;;;4.80;3.52;;;;;;;7.52;100.00;100760.50;1650724;87;21142;-80
2022/04/30 03:12:53;;;;;;;5.95;3.40;;;;;;;7.51;100.00;100764.23;1649700;85;21744;-85
2022/04/30 03:21:42;;;;;;;5.47;3.40;;;;;;;7.51;100.00;100772.91;1651088;87;21525;-82
2022/04/30 03:22:32;;;;;;;4.33;3.17;;;;;;;7.50;100.00;100769.84;1636813;85;21185;-79
2022/04/30 03:25:38;;;;;;;6.37;2.85;;;;;;;7.49;100.00;100768.13;1650806;87;21205;-79
2022/04/30 03:28:45;;;;;;;6.72;3.30;;;;;;;7.49;100.00;100769.48;1649661;85;21209;-80
2022/04/30 03:31:52;;;;;;;5.45;3.37;;;;;;;7.50;100.00;100769.84;1650756;85;21209;-79
2022/04/30 03:34:56;;;;;;;4.55;3.30;;;;;;;7.50;100.00;100773.92;1650544;87;21250;-79
2022/04/30 03:38:02;;;;;;;7.40;3.70;;;;;;;7.52;100.00;100781.42;1649950;85;21280;-79
2022/04/30 03:41:08;;;;;;;5.80;3.30;;;;;;;7.52;100.00;100767.81;1650729;87;21154;-79
2022/04/30 03:44:16;;;;;;;6.67;4.10;;;;;;;7.54;100.00;100771.27;1649750;86;21650;-79
2022/04/30 03:47:20;;;;;;;5.00;3.40;;;;;;;7.55;100.00;100771.11;1650371;85;21750;-79
2022/04/30 03:50:25;;;;;;;4.45;3.35;;;;;;;7.55;100.00;100768.39;1650442;87;21245;-79
2022/04/30 03:53:32;;;;;;;5.53;3.35;;;;;;;7.55;100.00;100768.39;1649890;85;21205;-79
2022/04/30 03:56:38;;;;;;;8.85;3.50;;;;;;;7.55;100.00;100763.45;1650843;85;21170;-79
2022/04/30 03:59:46;;;;;;;8.88;2.98;;;;;;;7.55;100.00;100760.73;1650850;87;21174;-79
2022/04/30 04:02:53;;;;;;;4.42;3.30;;;;;;;7.59;100.00;100762.16;1650291;85;21201;-79
2022/04/30 04:05:58;;;;;;;5.53;2.87;;;;;;;7.64;100.00;100769.38;1650900;87;21190;-79
2022/04/30 04:09:05;;;;;;;4.85;3.05;;;;;;;7.68;100.00;100763.50;1650991;87;21703;-79
2022/04/30 04:12:12;;;;;;;3.52;2.72;;;;;;;7.75;100.00;100777.38;1648200;85;21225;-79
2022/04/30 04:18:41;;;;;;;6.60;3.37;;;;;;;7.84;100.00;100776.49;1636563;86;21206;-79
2022/04/30 04:21:48;;;;;;;4.28;3.05;;;;;;;7.90;100.00;100779.13;1636927;86;21199;-79
2022/04/30 04:28:17;;;;;;;4.42;2.87;;;;;;;7.98;100.00;100775.67;1636973;86;21752;-79
2022/04/30 04:31:24;;;;;;;3.45;2.60;;;;;;;8.01;100.00;100775.39;1636670;87;21166;-79
2022/04/30 04:34:30;;;;;;;3.37;2.77;;;;;;;8.04;100.00;100778.65;1638019;87;21195;-79
2022/04/30 04:37:36;;;;;;;5.97;3.05;;;;;;;8.08;100.00;100781.44;1637939;86;21752;-79
2022/04/30 04:40:43;;;;;;;4.87;2.87;;;;;;;8.11;100.00;100780.30;1638099;87;21214;-80
2022/04/30 04:43:48;;;;;;;6.67;3.27;;;;;;;8.19;100.00;100788.59;1637970;86;21182;-79
2022/04/30 04:46:55;;;;;;;3.47;2.60;;;;;;;8.23;100.00;100789.13;1637961;86;21178;-79
2022/04/30 04:50:01;;;;;;;3.87;2.55;;;;;;;8.24;100.00;100787.63;1637840;87;21226;-79
2022/04/30 04:53:07;;;;;;;4.45;2.70;;;;;;;8.28;100.00;100794.51;1637100;86;21775;-79
2022/04/30 04:56:11;;;;;;;10.28;3.27;;;;;;;8.36;100.00;100802.80;1637993;87;21688;-80
2022/04/30 04:59:10;;;;;;;4.40;3.00;;;;;;;8.45;100.00;100805.98;1637132;87;21179;-79
2022/04/30 05:02:16;;;;;;;3.55;2.35;;;;;;;8.58;100.00;100808.89;1637543;86;21732;-79
2022/04/30 05:05:21;;;;;;;2.87;2.37;;;;;;;8.69;100.00;100802.70;1637768;87;21736;-80
2022/04/30 05:08:26;;;;;;;3.37;2.67;;;;;;;8.79;100.00;100805.88;1636859;86;21223;-80
2022/04/30 05:11:33;;;;;;;7.28;2.30;;;;;;;8.84;100.00;100807.14;1636686;86;21708;-80
2022/04/30 05:14:39;;;;;;;2.58;2.22;;;;;;;8.85;100.00;100810.24;1644138;87;21177;-79
2022/04/30 05:17:46;;;;;;;3.62;2.17;;;;;;;8.84;100.00;100815.32;1650833;85;21199;-79
2022/04/30 05:20:53;;;;;;;5.60;2.30;;;;;;;8.83;100.00;100816.34;1650893;87;21158;-79
2022/04/30 05:23:59;;;;;;;4.33;2.17;;;;;;;8.85;99.65;100818.94;1650817;87;21162;-79
2022/04/30 05:27:03;;;;;;;3.92;2.22;;;;;;;8.88;100.00;100807.19;1650602;85;21190;-79
2022/04/30 05:30:09;;;;;;;2.77;1.90;;;;;;;8.96;100.00;100807.28;1649591;87;21170;-79
2022/04/30 05:33:15;;;;;;;4.37;2.10;;;;;;;9.02;99.51;100810.41;1650029;85;22170;-79
2022/04/30 05:36:21;;;;;;;3.08;2.08;;;;;;;9.10;99.32;100805.05;1650988;87;21680;-79
2022/04/30 05:39:26;;;;;;;5.83;2.40;;;;;;;9.20;98.18;100805.83;1650862;87;21762;-79
2022/04/30 05:42:32;;;;;;;4.97;2.15;;;;;;;9.29;97.49;100801.31;1650301;85;21930;-79
2022/04/30 05:45:38;;;;;;;2.60;1.75;;;;;;;9.38;98.54;100797.13;1650714;87;21150;-80
2022/04/30 05:48:46;;;;;;;5.05;1.87;;;;;;;9.55;96.89;100810.91;1649532;85;21181;-79
2022/04/30 05:51:52;;;;;;;2.58;1.85;;;;;;;9.71;97.39;100809.19;1650754;85;21210;-80
2022/04/30 05:54:55;;;;;;;1.87;1.62;;;;;;;9.88;96.20;100804.72;1650667;87;21181;-79
2022/04/30 05:58:00;;;;;;;2.87;1.70;;;;;;;10.01;95.21;100805.64;1649985;85;21794;-79
2022/04/30 06:01:05;;;;;;;4.10;2.12;;;;;;;10.11;94.07;100808.27;1650686;87;21206;-79
2022/04/30 06:04:11;;;;;;;2.87;1.75;;;;;;;10.16;93.53;100804.05;1650815;87;21159;-79
2022/04/30 06:07:16;;;;;;;5.05;1.50;;;;;;;10.29;94.10;100804.13;1650841;85;21210;-80
2022/04/30 06:10:22;;;;;;;2.55;1.57;;;;;;;10.37;91.53;100813.25;1649795;87;21162;-80
2022/04/30 06:13:29;;;;;;;1.98;1.30;;;;;;;10.39;89.77;100801.62;1649854;85;21249;-79
2022/04/30 06:16:35;;;;;;;5.35;1.37;;;;;;;10.45;90.38;100799.63;1636983;86;21764;-80
2022/04/30 06:19:43;;;;;;;3.62;1.55;;;;;;;10.57;89.38;100807.52;1637736;87;21194;-85
2022/04/30 06:22:50;;;;;;;2.00;1.35;;;;;;;10.71;89.31;100806.38;1637793;86;21150;-81
2022/04/30 06:25:57;;;;;;;3.17;1.55;;;;;;;10.86;89.06;100806.60;1637878;87;21716;-80
2022/04/30 06:29:03;;;;;;;2.67;1.40;;;;;;;11.02;86.66;100805.81;1638253;87;21226;-85
2022/04/30 06:32:08;;;;;;;2.45;1.35;;;;;;;11.13;84.77;100807.37;1638201;86;21198;-85
2022/04/30 06:35:14;;;;;;;2.90;1.40;;;;;;;11.23;85.28;100806.19;1638301;87;21222;-85
2022/04/30 06:38:20;;;;;;;3.20;1.30;;;;;;;11.39;85.09;100812.73;1637360;86;21166;-85
2022/04/30 06:41:26;;;;;;;1.95;1.10;;;;;;;11.50;82.74;100803.66;1638116;87;21135;-85
2022/04/30 06:44:33;;;;;;;2.62;1.30;;;;;;;11.64;84.77;100799.90;1638150;87;21155;-85
2022/04/30 06:47:39;;;;;;;1.70;1.10;;;;;;;11.87;85.13;100813.80;1637658;86;21198;-85
2022/04/30 06:50:47;;;;;;;2.25;1.10;;;;;;;12.10;84.20;100820.80;1636980;87;21226;-85
2022/04/30 06:57:12;;;;;;;2.25;1.05;;;;;;;12.35;82.55;100805.98;1637671;86;21206;-85
2022/04/30 07:03:45;;;;;;;1.57;1.07;;;;;;;12.69;82.12;100801.57;1636949;86;21422;-86
2022/04/30 07:06:47;;;;;;;1.90;1.20;;;;;;;12.79;80.13;100795.34;1638140;86;21190;-86
2022/04/30 07:09:39;;;;;;;3.72;1.27;;;;;;;12.83;79.95;100793.10;1621336;87;21803;-85
2022/04/30 07:12:46;;;;;;;2.02;1.20;;;;;;;12.90;80.49;100786.39;1637413;86;21238;-86
2022/04/30 07:15:51;;;;;;;2.05;1.45;;;;;;;12.99;79.89;100788.91;1639979;87;21190;-85
2022/04/30 07:18:58;;;;;;;4.58;1.70;;;;;;;13.02;78.72;100789.91;1650912;87;21747;-85
2022/04/30 07:21:58;;;;;;;1.20;1.10;;;;;;;13.02;79.77;100780.30;1650878;85;21742;-85
2022/04/30 07:25:03;;;;;;;2.62;1.62;;;;;;;13.02;78.82;100788.53;1650748;87;21794;-86
2022/04/30 07:28:09;;;;;;;2.75;1.42;;;;;;;12.93;78.29;100792.87;1650315;85;21782;-85
2022/04/30 07:31:15;;;;;;;2.60;1.52;;;;;;;12.83;78.25;100783.49;1650296;87;21170;-85
2022/04/30 07:34:20;;;;;;;1.60;1.20;;;;;;;12.80;79.83;100785.25;1651081;87;21166;-85
2022/04/30 07:37:25;;;;;;;1.75;1.15;;;;;;;12.79;81.07;100787.62;1650574;85;21210;-86
2022/04/30 07:40:31;;;;;;;1.62;1.30;;;;;;;12.79;80.39;100790.38;1649799;87;21239;-85
2022/04/30 07:43:37;;;;;;;1.07;0.93;;;;;;;12.75;80.89;100798.14;1649976;85;21239;-86
2022/04/30 07:46:42;;;;;;;1.65;1.10;;;;;;;12.74;79.50;100796.40;1650945;85;21206;-85
2022/04/30 07:49:48;;;;;;;2.85;1.05;;;;;;;12.70;78.16;100799.67;1650976;87;21169;-79
2022/04/30 07:52:54;;;;;;;1.82;1.20;;;;;;;12.68;79.76;100802.61;1650176;85;21202;-80
2022/04/30 07:56:00;;;;;;;1.80;1.37;;;;;;;12.71;79.93;100806.91;1650897;87;21162;-79
2022/04/30 07:59:07;;;;;;;1.70;1.40;;;;;;;12.71;79.41;100800.05;1650778;87;21205;-80
2022/04/30 08:02:15;;;;;;;1.47;1.20;;;;;;;12.70;77.04;100814.28;1649680;85;21182;-79
2022/04/30 08:05:20;;;;;;;2.70;1.40;;;;;;;12.69;76.67;100806.20;1650863;87;21174;-79
2022/04/30 08:08:26;;;;;;;2.62;1.02;;;;;;;12.73;75.07;100805.67;1649840;85;21209;-80
2022/04/30 08:11:33;;;;;;;3.67;1.30;;;;;;;12.74;76.51;100797.77;1649587;85;21214;-79
2022/04/30 08:14:40;;;;;;;2.75;1.50;;;;;;;12.70;71.71;100808.80;1649724;86;21206;-79
2022/04/30 08:17:46;;;;;;;1.57;1.12;;;;;;;12.62;70.73;100803.33;1641579;86;21733;-79
2022/04/30 08:20:53;;;;;;;3.27;1.25;;;;;;;12.60;69.31;100793.55;1637818;87;21234;-79
2022/04/30 08:23:59;;;;;;;2.30;1.02;;;;;;;12.70;71.17;100794.19;1637878;87;21211;-79
2022/04/30 08:27:05;;;;;;;1.92;1.30;;;;;;;12.86;71.05;100788.64;1637691;86;21195;-79
2022/04/30 08:30:10;;;;;;;2.72;1.30;;;;;;;13.05;74.27;100795.56;1638057;87;21213;-79
2022/04/30 08:33:15;;;;;;;4.10;1.45;;;;;;;13.25;74.92;100794.61;1637040;86;21182;-79
2022/04/30 08:36:21;;;;;;;2.47;1.40;;;;;;;13.49;75.20;100785.33;1637937;87;21162;-79
2022/04/30 08:39:27;;;;;;;1.37;1.12;;;;;;;13.69;71.17;100793.92;1637795;87;21203;-80
2022/04/30 08:42:34;;;;;;;2.27;1.15;;;;;;;13.76;68.05;100786.66;1636902;86;21174;-79
2022/04/30 08:45:41;;;;;;;1.87;0.98;;;;;;;13.76;61.39;100785.28;1636638;87;21218;-79
2022/04/30 08:48:47;;;;;;;2.47;1.32;;;;;;;13.74;62.29;100773.63;1636765;86;21234;-80
2022/04/30 08:51:54;;;;;;;2.50;1.10;;;;;;;13.73;60.95;100774.64;1623642;86;21760;-79
2022/04/30 08:55:02;;;;;;;1.85;1.17;;;;;;;13.67;61.30;100771.27;1638150;87;21194;-80
2022/04/30 08:58:09;;;;;;;2.22;1.25;;;;;;;13.63;60.19;100762.53;1638002;86;21198;-79
2022/04/30 09:01:11;;;;;;;2.75;1.15;;;;;;;13.62;57.65;100770.98;1638071;87;21155;-79
2022/04/30 09:04:18;;;;;;;1.98;1.10;;;;;;;13.51;55.75;100767.63;1638045;87;21745;-79
2022/04/30 09:07:30;;;;;;;2.17;1.17;;;;;;;13.43;54.62;100765.47;1638005;86;21202;-79
2022/04/30 09:10:37;;;;;;;1.77;1.15;;;;;;;13.43;58.33;100769.06;1637664;87;21273;-80
2022/04/30 09:13:56;;;;;;;1.77;1.10;;;;;;;13.52;54.51;100768.48;1622968;87;21202;-79
2022/04/30 09:17:13;;;;;;;2.12;0.80;;;;;;;13.52;54.82;100767.96;1637881;86;21254;-79
2022/04/30 09:20:24;;;;;;;3.22;1.22;;;;;;;13.50;52.56;100765.93;1637844;87;21159;-80
2022/04/30 09:23:37;;;;;;;2.87;1.20;;;;;;;13.51;53.19;100766.26;1636827;86;21747;-79
2022/04/30 09:26:52;;;;;;;2.45;1.12;;;;;;;13.50;52.49;100763.19;1638178;86;21190;-80
2022/04/30 09:29:58;;;;;;;1.45;1.05;;;;;;;13.45;52.07;100761.48;1637888;87;21478;-79
2022/04/30 09:33:11;;;;;;;4.55;1.02;;;;;;;13.39;51.63;100763.59;1637075;86;21214;-85
2022/04/30 09:39:40;;;;;;;3.65;1.20;;;;;;;13.53;51.19;100762.79;1637965;87;21202;-79
2022/04/30 09:42:50;;;;;;;1.42;1.10;;;;;;;13.60;49.25;100768.42;1637348;86;21716;-79
2022/04/30 09:45:53;;;;;;;2.35;0.85;;;;;;;13.65;49.36;100767.88;1637926;87;21167;-79
2022/04/30 09:55:47;;;;;;;3.10;1.47;;;;;;;13.62;48.56;100744.34;1637802;87;21214;-79
2022/04/30 09:58:52;;;;;;;2.67;1.22;;;;;;;13.64;47.77;100742.77;1636596;86;21238;-79
2022/04/30 10:01:58;;;;;;;3.65;1.37;;;;;;;13.70;47.91;100742.05;1637787;86;21222;-79
2022/04/30 10:05:05;;;;;;;4.12;1.10;;;;;;;13.80;50.12;100738.51;1638021;87;21671;-78
2022/04/30 10:08:12;;;;;;;2.52;1.10;;;;;;;13.98;49.74;100741.77;1637751;86;21808;-78
2022/04/30 10:11:35;;;;;;;1.87;1.10;;;;;;;14.07;44.92;100743.91;1636665;86;21218;-77
2022/04/30 10:15:15;;;;;;;1.52;0.90;;;;;;;14.05;46.83;100734.45;1637904;87;21700;-78
2022/04/30 10:18:24;;;;;;;1.12;0.80;;;;;;;14.09;45.07;100742.34;1622022;87;21162;-77
2022/04/30 10:21:29;;;;;;;1.15;0.90;;;;;;;14.10;39.20;100747.64;1637866;87;21194;-77
2022/04/30 10:24:41;;;;;;;1.62;0.98;;;;;;;14.03;41.28;100721.95;1638032;87;21142;-77
2022/04/30 10:27:51;;;;;;;1.62;0.90;;;;;;;13.97;40.55;100729.06;1637860;86;21191;-78
2022/04/30 10:31:13;;;;;;;2.10;1.07;;;;;;;13.97;43.69;100724.94;1623971;87;21151;-79
2022/04/30 10:34:18;;;;;;;2.90;0.90;;;;;;;14.01;41.15;100726.23;1637916;87;21740;-79
2022/04/30 10:37:39;;;;;;;2.10;1.00;;;;;;;14.04;40.49;100734.12;1637901;86;21724;-79
2022/04/30 10:41:01;;;;;;;2.25;1.02;;;;;;;14.05;38.46;100718.47;1638047;87;21159;-79
2022/04/30 10:44:08;;;;;;;6.15;1.17;;;;;;;14.09;38.45;100721.70;1637920;87;21207;-79
2022/04/30 10:47:19;;;;;;;2.52;1.10;;;;;;;14.15;41.36;100720.94;1620464;87;21202;-78
2022/04/30 10:50:27;;;;;;;3.22;1.10;;;;;;;14.21;39.89;100727.93;1637942;87;21721;-79
2022/04/30 10:53:35;;;;;;;1.07;0.80;;;;;;;14.24;41.09;100726.67;1637986;86;21203;-79
2022/04/30 10:56:40;;;;;;;3.55;0.95;;;;;;;14.30;43.07;100712.15;1637920;86;21151;-79
2022/04/30 10:59:46;;;;;;;3.02;1.10;;;;;;;14.38;41.66;100721.69;1638070;87;21345;-79
2022/04/30 11:02:51;;;;;;;1.90;1.22;;;;;;;14.46;42.38;100707.83;1638041;86;21213;-79
2022/04/30 11:05:58;;;;;;;6.95;1.10;;;;;;;14.59;41.14;100710.47;1638139;87;21552;-79
2022/04/30 11:09:11;;;;;;;1.15;0.82;;;;;;;14.66;39.81;100704.50;1638019;87;21171;-79
2022/04/30 11:12:20;;;;;;;2.52;0.90;;;;;;;14.63;38.94;100700.22;1637775;86;21374;-79
2022/04/30 11:15:27;;;;;;;2.58;1.00;;;;;;;14.64;38.47;100691.47;1638121;87;21171;-79
2022/04/30 11:18:33;;;;;;;1.10;0.88;;;;;;;14.66;39.51;100694.86;1621734;87;21194;-79
2022/04/30 11:21:40;;;;;;;1.92;1.10;;;;;;;14.72;39.29;100681.69;1637410;86;21238;-79
2022/04/30 11:24:47;;;;;;;3.33;0.70;;;;;;;14.73;40.76;100681.52;1637450;87;21179;-79
2022/04/30 11:27:54;;;;;;;1.75;1.00;;;;;;;14.83;39.79;100688.94;1637606;86;21166;-79
2022/04/30 11:31:04;;;;;;;1.82;1.00;;;;;;;14.97;40.17;100683.58;1637940;87;21163;-79
2022/04/30 11:34:21;;;;;;;1.87;0.93;;;;;;;15.01;39.13;100691.25;1637325;87;21195;-79
2022/04/30 11:37:26;;;;;;;1.77;0.90;;;;;;;14.96;39.74;100674.46;1637649;86;21202;-79
2022/04/30 11:40:32;;;;;;;1.12;0.82;;;;;;;14.92;42.07;100675.90;1638935;87;21161;-79
2022/04/30 11:43:39;;;;;;;1.40;0.72;;;;;;;14.87;36.28;100676.12;1612116;87;21245;-79
2022/04/30 11:46:46;;;;;;;2.42;0.90;;;;;;;14.78;35.72;100676.80;1625952;87;21740;-78
2022/04/30 11:49:52;;;;;;;1.50;1.00;;;;;;;14.78;39.69;100667.17;1639300;87;21207;-79
2022/04/30 11:52:58;;;;;;;1.80;0.85;;;;;;;14.88;39.40;100664.94;1638702;86;21170;-79
2022/04/30 11:56:03;;;;;;;2.30;0.90;;;;;;;14.93;39.67;100676.22;1639495;87;21198;-79
2022/04/30 11:59:09;;;;;;;2.80;0.98;;;;;;;15.00;36.41;100660.59;1639281;87;21744;-79
2022/04/30 12:02:14;;;;;;;3.20;1.10;;;;;;;15.05;38.58;100660.01;1639308;86;21194;-79
2022/04/30 12:05:10;;;;;;;2.17;0.90;;;;;;;15.19;37.15;100668.72;1639485;87;21755;-79
2022/04/30 12:08:02;;;;;;;1.00;0.90;;;;;;;15.25;37.18;100654.70;1639451;86;21198;-79
2022/04/30 12:11:02;;;;;;;1.72;0.93;;;;;;;15.25;37.15;100662.97;1639201;87;21708;-79
2022/04/30 12:14:03;;;;;;;2.85;1.37;;;;;;;15.21;38.20;100652.02;1638615;87;21162;-79
2022/04/30 12:17:08;;;;;;;1.32;0.70;;;;;;;15.18;39.07;100662.05;1639404;87;21198;-79
2022/04/30 12:27:09;;;;;;;2.30;1.10;;;;;;;15.02;39.26;100643.36;1670690;84;21269;-79
2022/04/30 12:30:21;;;;;;;1.45;0.80;;;;;;;14.99;39.38;100643.75;1672517;84;21326;-79
2022/04/30 12:33:21;;;;;;;2.45;1.25;;;;;;;14.99;40.23;100634.64;1647907;85;21220;-79
2022/04/30 12:36:27;;;;;;;3.70;1.00;;;;;;;14.97;39.14;100637.59;1649220;87;21188;-78
2022/04/30 12:39:32;;;;;;;2.40;0.95;;;;;;;14.87;39.86;100627.44;1649339;87;21802;-84
2022/04/30 12:42:40;;;;;;;4.12;1.07;;;;;;;14.78;39.38;100625.86;1649307;85;21224;-79
2022/04/30 12:45:46;;;;;;;1.87;0.90;;;;;;;14.70;38.79;100625.45;1649285;87;21173;-84
2022/04/30 12:48:51;;;;;;;1.32;0.80;;;;;;;14.63;37.66;100631.39;1649193;85;21283;-79
2022/04/30 12:52:01;;;;;;;2.08;0.93;;;;;;;14.58;38.41;100636.64;1720854;81;21246;-79
2022/04/30 12:55:00;;;;;;;6.15;1.15;;;;;;;14.54;38.97;100626.56;1697430;84;21231;-80
2022/04/30 12:58:05;;;;;;;2.55;1.20;;;;;;;14.53;38.02;100620.70;1697767;83;21231;-79
2022/04/30 13:01:12;;;;;;;2.25;1.02;;;;;;;14.52;40.33;100623.13;1698634;84;21179;-79
2022/04/30 13:04:17;;;;;;;4.87;1.15;;;;;;;14.56;40.26;100625.83;1698547;84;21199;-79
2022/04/30 13:07:22;;;;;;;2.15;1.07;;;;;;;14.61;40.13;100631.28;1698186;83;21589;-79
2022/04/30 13:13:52;;;;;;;1.57;1.00;;;;;;;14.64;40.04;100622.64;1697127;83;21246;-79
2022/04/30 13:16:58;;;;;;;1.37;1.02;;;;;;;14.63;40.53;100636.91;1698803;83;21198;-79
2022/04/30 13:20:05;;;;;;;1.90;1.20;;;;;;;14.59;40.35;100620.47;1698947;84;21195;-79
2022/04/30 13:23:09;;;;;;;1.87;1.10;;;;;;;14.60;40.73;100618.05;1698275;83;21198;-79
2022/04/30 13:26:16;;;;;;;1.00;0.90;;;;;;;14.62;41.13;100621.44;1698058;84;21209;-79
2022/04/30 13:29:15;;;;;;;1.55;1.02;;;;;;;14.66;40.98;100616.41;1698638;84;21202;-78
2022/04/30 13:32:07;;;;;;;2.80;1.60;;;;;;;14.69;42.23;100620.16;1692346;84;21252;-79
2022/04/30 13:35:14;;;;;;;2.45;1.20;;;;;;;14.71;42.52;100620.80;1697991;84;21197;-79
2022/04/30 13:38:20;;;;;;;2.20;0.90;;;;;;;14.72;41.58;100607.35;1697608;84;21742;-79
2022/04/30 13:41:25;;;;;;;1.77;1.05;;;;;;;14.60;40.70;100607.03;1698547;84;21197;-78
2022/04/30 13:44:31;;;;;;;2.67;1.10;;;;;;;14.50;41.54;100600.47;1696097;84;21185;-78
2022/04/30 13:47:36;;;;;;;4.35;1.25;;;;;;;14.46;41.96;100600.49;1669113;84;21799;-79
2022/04/30 13:50:43;;;;;;;4.00;0.98;;;;;;;14.41;41.08;100597.47;1671109;83;21792;-79
2022/04/30 13:53:48;;;;;;;4.15;0.93;;;;;;;14.36;40.75;100595.83;1684376;84;21247;-79
2022/04/30 13:56:54;;;;;;;2.72;1.10;;;;;;;14.28;41.11;100599.55;1713227;83;21208;-84
2022/04/30 14:00:00;;;;;;;1.52;1.02;;;;;;;14.22;41.15;100594.82;1709580;83;21235;-84
2022/04/30 14:03:07;;;;;;;3.35;1.50;;;;;;;14.19;41.09;100580.59;1704830;83;21272;-84
2022/04/30 14:06:13;;;;;;;2.12;1.17;;;;;;;14.19;41.68;100591.59;1712497;82;21824;-83
2022/04/30 14:09:18;;;;;;;1.57;0.88;;;;;;;14.17;42.25;100579.42;1712632;83;21240;-83
2022/04/30 14:12:24;;;;;;;1.32;1.05;;;;;;;14.17;43.18;100583.55;1712713;82;21256;-83
2022/04/30 14:15:29;;;;;;;1.98;1.10;;;;;;;14.20;44.07;100585.89;1714163;83;21785;-83
2022/04/30 14:18:34;;;;;;;1.42;1.10;;;;;;;14.19;42.25;100588.31;1691217;83;21224;-83
2022/04/30 14:21:41;;;;;;;1.70;1.00;;;;;;;14.20;42.32;100587.79;1712687;82;21209;-83
2022/04/30 14:24:46;;;;;;;3.75;1.45;;;;;;;14.16;42.83;100585.09;1714537;83;21189;-83
2022/04/30 14:27:51;;;;;;;3.15;1.32;;;;;;;14.13;43.25;100573.97;1714030;82;21544;-82
2022/04/30 14:30:56;;;;;;;3.77;1.40;;;;;;;14.11;43.03;100577.95;1714779;83;21643;-82
2022/04/30 14:34:02;;;;;;;3.02;1.12;;;;;;;14.08;43.11;100579.20;1714979;83;21200;-83
2022/04/30 14:37:07;;;;;;;2.33;1.20;;;;;;;14.08;44.57;100572.84;1714189;82;21200;-83
2022/04/30 14:40:17;;;;;;;3.75;1.35;;;;;;;14.08;45.10;100570.10;1714882;83;21172;-83
2022/04/30 14:43:23;;;;;;;2.05;1.50;;;;;;;14.10;45.26;100569.37;1714859;82;21854;-83
2022/04/30 14:46:28;;;;;;;4.10;1.40;;;;;;;14.11;45.10;100569.69;1714827;83;21815;-83
2022/04/30 14:49:34;;;;;;;1.90;1.20;;;;;;;14.11;44.42;100566.41;1714851;83;21772;-83
2022/04/30 14:52:39;;;;;;;2.22;1.20;;;;;;;14.08;44.96;100561.33;1708760;82;21246;-83
2022/04/30 14:55:45;;;;;;;1.25;1.10;;;;;;;14.05;45.87;100558.42;1698691;84;21136;-83
2022/04/30 14:58:50;;;;;;;3.55;1.55;;;;;;;14.05;45.74;100562.55;1697333;83;21258;-83
2022/04/30 15:01:55;;;;;;;5.08;1.25;;;;;;;14.03;46.94;100556.92;1698525;83;21211;-83
2022/04/30 15:05:02;;;;;;;7.80;1.35;;;;;;;13.98;46.72;100545.66;1698588;84;21229;-83
2022/04/30 15:08:08;;;;;;;2.08;1.25;;;;;;;13.94;47.05;100561.68;1697859;83;21246;-83
2022/04/30 15:11:13;;;;;;;2.70;1.40;;;;;;;13.92;47.32;100551.38;1699016;84;21182;-83
2022/04/30 15:14:19;;;;;;;4.80;1.75;;;;;;;13.88;47.31;100550.08;1677341;84;21211;-83